sensor_id;sensor_type;location;lat;lon;timestamp;pressure;altitude;pressure_sealevel;temperature;humidity
49723;BME280;43484;43.608;1.458;2023-01-27T00:00:50;100204.25;;;1.15;100.00
49723;BME280;43484;43.608;1.458;2023-01-27T00:03:17;100206.97;;;1.06;100.00
49723;BME280;43484;43.608;1.458;2023-01-27T00:05:44;100206.75;;;1.15;100.00
49723;BME280;43484;43.608;1.458;2023-01-27T00:08:12;100204.13;;;1.13;100.00
49723;BME280;43484;43.608;1.458;2023-01-27T00:10:39;100196.66;;;1.15;100.00
49723;BME280;43484;43.608;1.458;2023-01-27T00:13:06;100190.94;;;1.17;100.00
49723;BME280;43484;43.608;1.458;2023-01-27T00:15:51;100187.69;;;1.18;100.00
49723;BME280;43484;43.608;1.458;2023-01-27T00:18:19;100194.34;;;1.18;100.00
49723;BME280;43484;43.608;1.458;2023-01-27T00:20:46;100182.41;;;1.15;100.00
49723;BME280;43484;43.608;1.458;2023-01-27T00:23:31;100174.97;;;1.17;100.00
49723;BME280;43484;43.608;1.458;2023-01-27T00:26:17;100174.06;;;1.16;100.00
49723;BME280;43484;43.608;1.458;2023-01-27T00:28:45;100166.91;;;1.22;100.00
49723;BME280;43484;43.608;1.458;2023-01-27T00:31:14;100172.31;;;1.15;100.00
49723;BME280;43484;43.608;1.458;2023-01-27T00:34:00;100176.47;;;1.15;100.00
49723;BME280;43484;43.608;1.458;2023-01-27T00:36:35;100168.03;;;1.14;100.00
49723;BME280;43484;43.608;1.458;2023-01-27T00:39:02;100165.94;;;1.09;100.00
49723;BME280;43484;43.608;1.458;2023-01-27T00:41:29;100159.03;;;1.18;100.00
49723;BME280;43484;43.608;1.458;2023-01-27T00:43:56;100153.88;;;1.16;100.00
49723;BME280;43484;43.608;1.458;2023-01-27T00:46:23;100155.00;;;1.08;100.00
49723;BME280;43484;43.608;1.458;2023-01-27T00:48:51;100153.00;;;1.16;100.00
49723;BME280;43484;43.608;1.458;2023-01-27T00:51:18;100155.63;;;1.17;100.00
49723;BME280;43484;43.608;1.458;2023-01-27T00:53:46;100150.38;;;1.14;100.00
49723;BME280;43484;43.608;1.458;2023-01-27T00:56:13;100138.75;;;1.16;100.00
49723;BME280;43484;43.608;1.458;2023-01-27T00:58:40;100134.38;;;1.25;100.00
49723;BME280;43484;43.608;1.458;2023-01-27T01:01:10;100138.84;;;1.18;100.00
49723;BME280;43484;43.608;1.458;2023-01-27T01:03:36;100135.69;;;1.20;100.00
49723;BME280;43484;43.608;1.458;2023-01-27T01:06:06;100125.94;;;1.13;100.00
49723;BME280;43484;43.608;1.458;2023-01-27T01:08:34;100131.31;;;1.06;100.00
49723;BME280;43484;43.608;1.458;2023-01-27T01:11:01;100128.75;;;1.18;100.00
49723;BME280;43484;43.608;1.458;2023-01-27T01:13:28;100120.09;;;1.14;100.00
49723;BME280;43484;43.608;1.458;2023-01-27T01:15:55;100118.91;;;1.09;100.00
49723;BME280;43484;43.608;1.458;2023-01-27T01:18:23;100112.97;;;1.20;100.00
49723;BME280;43484;43.608;1.458;2023-01-27T01:20:50;100111.22;;;1.08;100.00
49723;BME280;43484;43.608;1.458;2023-01-27T01:23:17;100105.75;;;1.13;100.00
49723;BME280;43484;43.608;1.458;2023-01-27T01:25:51;100117.16;;;1.08;100.00
49723;BME280;43484;43.608;1.458;2023-01-27T01:28:18;100104.19;;;1.04;100.00
49723;BME280;43484;43.608;1.458;2023-01-27T01:30:45;100098.19;;;1.02;100.00
49723;BME280;43484;43.608;1.458;2023-01-27T01:33:12;100098.94;;;1.12;100.00
49723;BME280;43484;43.608;1.458;2023-01-27T01:35:39;100093.38;;;1.05;100.00
49723;BME280;43484;43.608;1.458;2023-01-27T01:38:05;100093.25;;;1.03;100.00
49723;BME280;43484;43.608;1.458;2023-01-27T01:40:32;100097.31;;;1.01;100.00
49723;BME280;43484;43.608;1.458;2023-01-27T01:43:01;100091.25;;;1.11;100.00
49723;BME280;43484;43.608;1.458;2023-01-27T01:47:59;100085.00;;;1.06;100.00
49723;BME280;43484;43.608;1.458;2023-01-27T01:50:27;100078.78;;;1.01;100.00
49723;BME280;43484;43.608;1.458;2023-01-27T01:52:54;100083.69;;;1.11;100.00
49723;BME280;43484;43.608;1.458;2023-01-27T01:55:22;100085.25;;;0.97;100.00
49723;BME280;43484;43.608;1.458;2023-01-27T01:57:49;100082.84;;;1.10;100.00
49723;BME280;43484;43.608;1.458;2023-01-27T02:00:16;100082.59;;;1.07;100.00
49723;BME280;43484;43.608;1.458;2023-01-27T02:02:43;100087.53;;;1.06;100.00
49723;BME280;43484;43.608;1.458;2023-01-27T02:05:32;100078.75;;;1.12;100.00
49723;BME280;43484;43.608;1.458;2023-01-27T02:08:10;100077.56;;;1.07;100.00
49723;BME280;43484;43.608;1.458;2023-01-27T02:10:38;100068.47;;;0.98;100.00
49723;BME280;43484;43.608;1.458;2023-01-27T02:13:05;100071.00;;;0.98;100.00
49723;BME280;43484;43.608;1.458;2023-01-27T02:15:32;100068.16;;;1.05;100.00
49723;BME280;43484;43.608;1.458;2023-01-27T02:17:59;100063.09;;;1.05;100.00
49723;BME280;43484;43.608;1.458;2023-01-27T02:26:21;100049.25;;;1.11;100.00
49723;BME280;43484;43.608;1.458;2023-01-27T02:31:23;100041.34;;;1.18;100.00
49723;BME280;43484;43.608;1.458;2023-01-27T02:33:51;100035.16;;;1.02;100.00
49723;BME280;43484;43.608;1.458;2023-01-27T02:36:20;100026.28;;;0.95;100.00
49723;BME280;43484;43.608;1.458;2023-01-27T02:38:51;100017.94;;;0.96;100.00
49723;BME280;43484;43.608;1.458;2023-01-27T02:41:33;100012.66;;;1.05;100.00
49723;BME280;43484;43.608;1.458;2023-01-27T02:44:00;100011.31;;;1.10;100.00
49723;BME280;43484;43.608;1.458;2023-01-27T02:46:27;100016.84;;;0.93;100.00
49723;BME280;43484;43.608;1.458;2023-01-27T02:48:54;99996.97;;;0.97;100.00
49723;BME280;43484;43.608;1.458;2023-01-27T02:51:21;100001.16;;;0.97;100.00
49723;BME280;43484;43.608;1.458;2023-01-27T02:53:48;100001.28;;;0.98;100.00
49723;BME280;43484;43.608;1.458;2023-01-27T02:56:14;99989.50;;;0.99;100.00
49723;BME280;43484;43.608;1.458;2023-01-27T02:58:41;99982.72;;;0.98;100.00
49723;BME280;43484;43.608;1.458;2023-01-27T03:01:07;99984.03;;;1.04;100.00
49723;BME280;43484;43.608;1.458;2023-01-27T03:03:34;99984.38;;;0.97;100.00
49723;BME280;43484;43.608;1.458;2023-01-27T03:06:01;99990.72;;;1.04;100.00
49723;BME280;43484;43.608;1.458;2023-01-27T03:08:27;99988.75;;;1.00;100.00
49723;BME280;43484;43.608;1.458;2023-01-27T03:10:54;99986.66;;;1.06;100.00
49723;BME280;43484;43.608;1.458;2023-01-27T03:13:25;99986.53;;;1.04;100.00
49723;BME280;43484;43.608;1.458;2023-01-27T03:15:53;99984.22;;;1.07;100.00
49723;BME280;43484;43.608;1.458;2023-01-27T03:18:40;99982.19;;;1.02;100.00
49723;BME280;43484;43.608;1.458;2023-01-27T03:21:06;99986.78;;;0.96;100.00
49723;BME280;43484;43.608;1.458;2023-01-27T03:23:33;99980.66;;;0.92;100.00
49723;BME280;43484;43.608;1.458;2023-01-27T03:26:04;99976.91;;;0.99;100.00
49723;BME280;43484;43.608;1.458;2023-01-27T03:28:31;99977.16;;;1.02;100.00
49723;BME280;43484;43.608;1.458;2023-01-27T03:31:03;99974.81;;;1.05;100.00
49723;BME280;43484;43.608;1.458;2023-01-27T03:33:30;99974.72;;;1.03;100.00
49723;BME280;43484;43.608;1.458;2023-01-27T03:35:57;99977.03;;;1.00;100.00
49723;BME280;43484;43.608;1.458;2023-01-27T03:38:42;99979.81;;;0.92;100.00
49723;BME280;43484;43.608;1.458;2023-01-27T03:41:27;99985.66;;;1.04;100.00
49723;BME280;43484;43.608;1.458;2023-01-27T03:44:12;99978.09;;;1.04;100.00
49723;BME280;43484;43.608;1.458;2023-01-27T03:46:58;99979.31;;;0.97;100.00
49723;BME280;43484;43.608;1.458;2023-01-27T03:49:25;99972.75;;;0.99;100.00
49723;BME280;43484;43.608;1.458;2023-01-27T03:51:52;99982.84;;;0.99;100.00
49723;BME280;43484;43.608;1.458;2023-01-27T03:54:18;99983.41;;;0.95;100.00
49723;BME280;43484;43.608;1.458;2023-01-27T03:56:45;99987.69;;;0.96;100.00
49723;BME280;43484;43.608;1.458;2023-01-27T03:59:13;99976.28;;;0.90;100.00
49723;BME280;43484;43.608;1.458;2023-01-27T04:01:40;99982.09;;;0.89;100.00
49723;BME280;43484;43.608;1.458;2023-01-27T04:04:09;99978.25;;;0.94;100.00
49723;BME280;43484;43.608;1.458;2023-01-27T04:06:55;99974.97;;;0.95;100.00
49723;BME280;43484;43.608;1.458;2023-01-27T04:11:56;99969.69;;;1.03;100.00
49723;BME280;43484;43.608;1.458;2023-01-27T04:14:35;99976.00;;;0.85;100.00
49723;BME280;43484;43.608;1.458;2023-01-27T04:17:13;99976.91;;;0.99;100.00
49723;BME280;43484;43.608;1.458;2023-01-27T04:19:40;99989.66;;;0.89;100.00
49723;BME280;43484;43.608;1.458;2023-01-27T04:22:08;99989.88;;;0.92;100.00
49723;BME280;43484;43.608;1.458;2023-01-27T04:24:34;99990.19;;;0.96;100.00
49723;BME280;43484;43.608;1.458;2023-01-27T04:27:06;100003.69;;;0.97;100.00
49723;BME280;43484;43.608;1.458;2023-01-27T04:29:35;100049.34;;;0.77;100.00
49723;BME280;43484;43.608;1.458;2023-01-27T04:32:03;100058.22;;;0.72;100.00
49723;BME280;43484;43.608;1.458;2023-01-27T04:34:33;100076.97;;;0.75;100.00
49723;BME280;43484;43.608;1.458;2023-01-27T04:37:00;100086.16;;;0.75;100.00
49723;BME280;43484;43.608;1.458;2023-01-27T04:39:28;100117.50;;;0.67;100.00
49723;BME280;43484;43.608;1.458;2023-01-27T04:41:56;100120.88;;;0.67;100.00
49723;BME280;43484;43.608;1.458;2023-01-27T04:44:23;100124.84;;;0.75;100.00
49723;BME280;43484;43.608;1.458;2023-01-27T04:46:50;100115.53;;;0.74;100.00
49723;BME280;43484;43.608;1.458;2023-01-27T04:49:17;100128.91;;;0.73;100.00
49723;BME280;43484;43.608;1.458;2023-01-27T04:51:43;100137.09;;;0.71;100.00
49723;BME280;43484;43.608;1.458;2023-01-27T04:54:12;100143.16;;;0.73;100.00
49723;BME280;43484;43.608;1.458;2023-01-27T04:56:41;100130.75;;;0.76;100.00
49723;BME280;43484;43.608;1.458;2023-01-27T04:59:11;100144.13;;;0.75;100.00
49723;BME280;43484;43.608;1.458;2023-01-27T05:01:38;100148.50;;;0.77;100.00
49723;BME280;43484;43.608;1.458;2023-01-27T05:04:05;100152.69;;;0.65;100.00
49723;BME280;43484;43.608;1.458;2023-01-27T05:06:31;100163.88;;;0.80;100.00
49723;BME280;43484;43.608;1.458;2023-01-27T05:08:58;100167.16;;;0.79;100.00
49723;BME280;43484;43.608;1.458;2023-01-27T05:11:26;100158.28;;;0.73;100.00
49723;BME280;43484;43.608;1.458;2023-01-27T05:13:53;100166.16;;;0.77;100.00
49723;BME280;43484;43.608;1.458;2023-01-27T05:16:21;100166.63;;;0.72;100.00
49723;BME280;43484;43.608;1.458;2023-01-27T05:18:53;100185.56;;;0.67;100.00
49723;BME280;43484;43.608;1.458;2023-01-27T05:21:21;100174.06;;;0.82;100.00
49723;BME280;43484;43.608;1.458;2023-01-27T05:23:49;100179.31;;;0.73;100.00
49723;BME280;43484;43.608;1.458;2023-01-27T05:26:16;100171.66;;;0.72;100.00
49723;BME280;43484;43.608;1.458;2023-01-27T05:28:45;100175.03;;;0.72;100.00
49723;BME280;43484;43.608;1.458;2023-01-27T05:31:20;100182.94;;;0.77;100.00
49723;BME280;43484;43.608;1.458;2023-01-27T05:33:49;100186.88;;;0.73;100.00
49723;BME280;43484;43.608;1.458;2023-01-27T05:36:18;100181.38;;;0.79;100.00
49723;BME280;43484;43.608;1.458;2023-01-27T05:38:45;100175.50;;;0.78;100.00
49723;BME280;43484;43.608;1.458;2023-01-27T05:41:13;100178.13;;;0.80;100.00
49723;BME280;43484;43.608;1.458;2023-01-27T05:43:41;100177.81;;;0.75;100.00
49723;BME280;43484;43.608;1.458;2023-01-27T05:46:19;100191.56;;;0.69;100.00
49723;BME280;43484;43.608;1.458;2023-01-27T05:48:48;100199.03;;;0.67;100.00
49723;BME280;43484;43.608;1.458;2023-01-27T05:51:17;100183.69;;;0.64;100.00
49723;BME280;43484;43.608;1.458;2023-01-27T05:53:43;100192.34;;;0.68;100.00
49723;BME280;43484;43.608;1.458;2023-01-27T05:56:13;100193.47;;;0.83;100.00
49723;BME280;43484;43.608;1.458;2023-01-27T05:58:40;100196.00;;;0.83;100.00
49723;BME280;43484;43.608;1.458;2023-01-27T06:01:11;100196.63;;;0.69;100.00
49723;BME280;43484;43.608;1.458;2023-01-27T06:03:38;100200.81;;;0.80;100.00
49723;BME280;43484;43.608;1.458;2023-01-27T06:06:06;100196.50;;;0.67;100.00
49723;BME280;43484;43.608;1.458;2023-01-27T06:08:33;100197.91;;;0.64;100.00
49723;BME280;43484;43.608;1.458;2023-01-27T06:11:00;100195.28;;;0.62;100.00
49723;BME280;43484;43.608;1.458;2023-01-27T06:13:27;100199.03;;;0.67;100.00
49723;BME280;43484;43.608;1.458;2023-01-27T06:15:54;100188.53;;;0.73;100.00
49723;BME280;43484;43.608;1.458;2023-01-27T06:18:22;100195.75;;;0.68;100.00
49723;BME280;43484;43.608;1.458;2023-01-27T06:20:49;100188.94;;;0.79;100.00
49723;BME280;43484;43.608;1.458;2023-01-27T06:23:16;100193.78;;;0.76;100.00
49723;BME280;43484;43.608;1.458;2023-01-27T06:25:47;100197.72;;;0.72;100.00
49723;BME280;43484;43.608;1.458;2023-01-27T06:28:15;100193.78;;;0.64;100.00
49723;BME280;43484;43.608;1.458;2023-01-27T06:30:54;100205.47;;;0.64;100.00
49723;BME280;43484;43.608;1.458;2023-01-27T06:33:21;100203.13;;;0.77;100.00
49723;BME280;43484;43.608;1.458;2023-01-27T06:35:48;100208.47;;;0.70;100.00
49723;BME280;43484;43.608;1.458;2023-01-27T06:38:15;100221.16;;;0.60;100.00
49723;BME280;43484;43.608;1.458;2023-01-27T06:40:42;100213.72;;;0.73;100.00
49723;BME280;43484;43.608;1.458;2023-01-27T06:43:11;100219.44;;;0.70;100.00
49723;BME280;43484;43.608;1.458;2023-01-27T06:45:39;100210.00;;;0.68;100.00
49723;BME280;43484;43.608;1.458;2023-01-27T06:48:05;100219.44;;;0.70;100.00
49723;BME280;43484;43.608;1.458;2023-01-27T06:50:34;100219.66;;;0.73;100.00
49723;BME280;43484;43.608;1.458;2023-01-27T06:53:05;100228.41;;;0.67;100.00
49723;BME280;43484;43.608;1.458;2023-01-27T06:55:34;100225.44;;;0.72;100.00
49723;BME280;43484;43.608;1.458;2023-01-27T06:58:01;100228.75;;;0.83;100.00
49723;BME280;43484;43.608;1.458;2023-01-27T07:00:28;100228.97;;;0.74;100.00
49723;BME280;43484;43.608;1.458;2023-01-27T07:02:55;100225.88;;;0.55;100.00
49723;BME280;43484;43.608;1.458;2023-01-27T07:05:23;100231.50;;;0.74;100.00
49723;BME280;43484;43.608;1.458;2023-01-27T07:07:50;100232.69;;;0.68;100.00
49723;BME280;43484;43.608;1.458;2023-01-27T07:10:17;100231.28;;;0.83;100.00
49723;BME280;43484;43.608;1.458;2023-01-27T07:12:43;100242.56;;;0.76;100.00
49723;BME280;43484;43.608;1.458;2023-01-27T07:15:10;100239.72;;;0.72;100.00
49723;BME280;43484;43.608;1.458;2023-01-27T07:17:37;100237.31;;;0.73;100.00
49723;BME280;43484;43.608;1.458;2023-01-27T07:20:06;100244.47;;;0.90;100.00
49723;BME280;43484;43.608;1.458;2023-01-27T07:22:34;100252.13;;;0.80;100.00
49723;BME280;43484;43.608;1.458;2023-01-27T07:25:03;100250.03;;;0.86;100.00
49723;BME280;43484;43.608;1.458;2023-01-27T07:27:30;100251.47;;;0.83;100.00
49723;BME280;43484;43.608;1.458;2023-01-27T07:29:57;100251.88;;;0.77;100.00
49723;BME280;43484;43.608;1.458;2023-01-27T07:32:23;100242.25;;;0.83;100.00
49723;BME280;43484;43.608;1.458;2023-01-27T07:34:53;100251.47;;;0.94;100.00
49723;BME280;43484;43.608;1.458;2023-01-27T07:37:20;100256.28;;;0.80;100.00
49723;BME280;43484;43.608;1.458;2023-01-27T07:39:46;100251.06;;;1.00;100.00
49723;BME280;43484;43.608;1.458;2023-01-27T07:42:13;100257.59;;;0.86;100.00
49723;BME280;43484;43.608;1.458;2023-01-27T07:44:40;100255.97;;;0.87;100.00
49723;BME280;43484;43.608;1.458;2023-01-27T07:47:06;100249.25;;;0.87;100.00
49723;BME280;43484;43.608;1.458;2023-01-27T07:49:33;100260.22;;;0.76;100.00
49723;BME280;43484;43.608;1.458;2023-01-27T07:51:59;100252.16;;;0.92;100.00
49723;BME280;43484;43.608;1.458;2023-01-27T07:54:26;100247.97;;;0.92;100.00
49723;BME280;43484;43.608;1.458;2023-01-27T07:56:53;100256.09;;;1.00;100.00
49723;BME280;43484;43.608;1.458;2023-01-27T07:59:19;100259.81;;;0.93;100.00
49723;BME280;43484;43.608;1.458;2023-01-27T08:01:46;100254.09;;;0.96;100.00
49723;BME280;43484;43.608;1.458;2023-01-27T08:04:14;100257.50;;;0.85;100.00
49723;BME280;43484;43.608;1.458;2023-01-27T08:06:40;100255.88;;;0.97;100.00
49723;BME280;43484;43.608;1.458;2023-01-27T08:09:07;100255.19;;;0.88;100.00
49723;BME280;43484;43.608;1.458;2023-01-27T08:11:34;100244.69;;;0.93;100.00
49723;BME280;43484;43.608;1.458;2023-01-27T08:14:00;100248.75;;;0.91;100.00
49723;BME280;43484;43.608;1.458;2023-01-27T08:16:27;100250.47;;;0.92;100.00
49723;BME280;43484;43.608;1.458;2023-01-27T08:18:54;100242.91;;;0.92;100.00
49723;BME280;43484;43.608;1.458;2023-01-27T08:21:21;100247.88;;;1.02;100.00
49723;BME280;43484;43.608;1.458;2023-01-27T08:23:48;100246.66;;;0.97;100.00
49723;BME280;43484;43.608;1.458;2023-01-27T08:26:15;100249.41;;;1.00;100.00
49723;BME280;43484;43.608;1.458;2023-01-27T08:28:41;100246.13;;;1.01;100.00
49723;BME280;43484;43.608;1.458;2023-01-27T08:31:09;100249.28;;;0.99;100.00
49723;BME280;43484;43.608;1.458;2023-01-27T08:33:37;100253.47;;;0.98;100.00
49723;BME280;43484;43.608;1.458;2023-01-27T08:36:09;100254.78;;;1.05;100.00
49723;BME280;43484;43.608;1.458;2023-01-27T08:38:37;100257.00;;;1.00;100.00
49723;BME280;43484;43.608;1.458;2023-01-27T08:41:06;100262.44;;;0.95;100.00
49723;BME280;43484;43.608;1.458;2023-01-27T08:43:34;100254.59;;;1.25;100.00
49723;BME280;43484;43.608;1.458;2023-01-27T08:46:00;100267.31;;;1.15;100.00
49723;BME280;43484;43.608;1.458;2023-01-27T08:48:27;100249.84;;;1.06;100.00
49723;BME280;43484;43.608;1.458;2023-01-27T08:50:56;100251.69;;;1.09;100.00
49723;BME280;43484;43.608;1.458;2023-01-27T08:53:24;100261.84;;;1.20;100.00
49723;BME280;43484;43.608;1.458;2023-01-27T08:55:51;100259.16;;;1.07;100.00
49723;BME280;43484;43.608;1.458;2023-01-27T08:58:20;100260.59;;;1.04;100.00
49723;BME280;43484;43.608;1.458;2023-01-27T09:00:47;100257.84;;;1.12;100.00
49723;BME280;43484;43.608;1.458;2023-01-27T09:03:15;100252.28;;;1.16;100.00
49723;BME280;43484;43.608;1.458;2023-01-27T09:05:42;100257.53;;;1.08;100.00
49723;BME280;43484;43.608;1.458;2023-01-27T09:08:08;100256.63;;;1.07;100.00
49723;BME280;43484;43.608;1.458;2023-01-27T09:10:39;100258.09;;;1.15;100.00
49723;BME280;43484;43.608;1.458;2023-01-27T09:13:07;100252.06;;;1.13;100.00
49723;BME280;43484;43.608;1.458;2023-01-27T09:15:34;100255.22;;;1.22;100.00
49723;BME280;43484;43.608;1.458;2023-01-27T09:18:02;100250.19;;;1.11;100.00
49723;BME280;43484;43.608;1.458;2023-01-27T09:20:31;100255.00;;;1.19;100.00
49723;BME280;43484;43.608;1.458;2023-01-27T09:22:59;100255.69;;;1.17;100.00
49723;BME280;43484;43.608;1.458;2023-01-27T09:25:26;100256.13;;;1.23;100.00
49723;BME280;43484;43.608;1.458;2023-01-27T09:27:54;100264.56;;;1.00;100.00
49723;BME280;43484;43.608;1.458;2023-01-27T09:30:22;100262.69;;;1.21;100.00
49723;BME280;43484;43.608;1.458;2023-01-27T09:32:50;100254.25;;;1.20;100.00
49723;BME280;43484;43.608;1.458;2023-01-27T09:35:16;100265.22;;;1.21;100.00
49723;BME280;43484;43.608;1.458;2023-01-27T09:37:52;100260.72;;;1.17;100.00
49723;BME280;43484;43.608;1.458;2023-01-27T09:40:28;100260.63;;;1.15;100.00
49723;BME280;43484;43.608;1.458;2023-01-27T09:43:09;100257.00;;;1.23;100.00
49723;BME280;43484;43.608;1.458;2023-01-27T09:57:06;100253.47;;;1.33;100.00
49723;BME280;43484;43.608;1.458;2023-01-27T10:04:59;100239.00;;;1.42;100.00
49723;BME280;43484;43.608;1.458;2023-01-27T10:07:38;100237.34;;;1.19;100.00
49723;BME280;43484;43.608;1.458;2023-01-27T10:13:10;100226.50;;;1.44;100.00
49723;BME280;43484;43.608;1.458;2023-01-27T10:26:50;100212.53;;;1.60;100.00
49723;BME280;43484;43.608;1.458;2023-01-27T10:29:25;100209.56;;;1.43;100.00
49723;BME280;43484;43.608;1.458;2023-01-27T10:32:07;100196.94;;;1.66;100.00
49723;BME280;43484;43.608;1.458;2023-01-27T10:34:48;100193.97;;;1.60;100.00
49723;BME280;43484;43.608;1.458;2023-01-27T10:42:38;100191.47;;;1.48;100.00
49723;BME280;43484;43.608;1.458;2023-01-27T10:45:18;100187.06;;;1.57;100.00
49723;BME280;43484;43.608;1.458;2023-01-27T10:50:30;100174.34;;;1.56;100.00
49723;BME280;43484;43.608;1.458;2023-01-27T10:53:27;100161.28;;;1.50;100.00
49723;BME280;43484;43.608;1.458;2023-01-27T10:58:43;100160.94;;;1.57;100.00
49723;BME280;43484;43.608;1.458;2023-01-27T11:01:16;100149.81;;;1.66;100.00
49723;BME280;43484;43.608;1.458;2023-01-27T11:03:58;100148.94;;;1.77;100.00
49723;BME280;43484;43.608;1.458;2023-01-27T11:06:35;100139.06;;;1.69;100.00
49723;BME280;43484;43.608;1.458;2023-01-27T11:11:51;100131.72;;;1.72;100.00
49723;BME280;43484;43.608;1.458;2023-01-27T11:14:28;100127.00;;;1.65;100.00
49723;BME280;43484;43.608;1.458;2023-01-27T11:17:03;100120.66;;;1.58;100.00
49723;BME280;43484;43.608;1.458;2023-01-27T11:22:49;100098.88;;;1.72;100.00
49723;BME280;43484;43.608;1.458;2023-01-27T11:28:19;100093.00;;;1.84;100.00
49723;BME280;43484;43.608;1.458;2023-01-27T11:31:25;100081.69;;;1.91;100.00
49723;BME280;43484;43.608;1.458;2023-01-27T11:36:52;100082.03;;;1.84;100.00
49723;BME280;43484;43.608;1.458;2023-01-27T11:39:18;100066.84;;;1.71;100.00
49723;BME280;43484;43.608;1.458;2023-01-27T11:41:54;100053.97;;;1.68;100.00
49723;BME280;43484;43.608;1.458;2023-01-27T11:44:25;100049.44;;;1.62;100.00
49723;BME280;43484;43.608;1.458;2023-01-27T11:46:54;100043.41;;;1.98;100.00
49723;BME280;43484;43.608;1.458;2023-01-27T11:49:25;100031.53;;;1.84;100.00
49723;BME280;43484;43.608;1.458;2023-01-27T11:52:01;100022.44;;;1.74;100.00
49723;BME280;43484;43.608;1.458;2023-01-27T11:54:39;100008.88;;;1.72;100.00
49723;BME280;43484;43.608;1.458;2023-01-27T11:57:17;100002.47;;;1.77;100.00
49723;BME280;43484;43.608;1.458;2023-01-27T11:59:44;99991.03;;;1.82;100.00
49723;BME280;43484;43.608;1.458;2023-01-27T12:02:23;99989.88;;;1.90;100.00
49723;BME280;43484;43.608;1.458;2023-01-27T12:10:33;99969.06;;;1.81;100.00
49723;BME280;43484;43.608;1.458;2023-01-27T12:13:23;99952.06;;;1.79;100.00
49723;BME280;43484;43.608;1.458;2023-01-27T12:15:57;99933.78;;;1.83;100.00
49723;BME280;43484;43.608;1.458;2023-01-27T12:18:25;99928.66;;;1.81;100.00
49723;BME280;43484;43.608;1.458;2023-01-27T12:21:00;99932.63;;;1.78;100.00
49723;BME280;43484;43.608;1.458;2023-01-27T12:23:39;99916.22;;;1.84;100.00
49723;BME280;43484;43.608;1.458;2023-01-27T12:26:12;99902.13;;;1.75;100.00
49723;BME280;43484;43.608;1.458;2023-01-27T12:28:50;99895.53;;;1.90;100.00
49723;BME280;43484;43.608;1.458;2023-01-27T12:31:30;99894.28;;;1.96;100.00
49723;BME280;43484;43.608;1.458;2023-01-27T12:36:45;99894.47;;;1.99;100.00
49723;BME280;43484;43.608;1.458;2023-01-27T12:39:50;99883.78;;;1.90;100.00
49723;BME280;43484;43.608;1.458;2023-01-27T12:42:39;99879.50;;;1.89;100.00
49723;BME280;43484;43.608;1.458;2023-01-27T12:45:19;99870.34;;;2.04;100.00
49723;BME280;43484;43.608;1.458;2023-01-27T12:50:27;99859.31;;;2.02;100.00
49723;BME280;43484;43.608;1.458;2023-01-27T12:55:49;99848.69;;;2.21;100.00
49723;BME280;43484;43.608;1.458;2023-01-27T13:01:29;99845.22;;;2.06;100.00
49723;BME280;43484;43.608;1.458;2023-01-27T13:04:08;99846.06;;;2.06;100.00
49723;BME280;43484;43.608;1.458;2023-01-27T13:06:40;99841.91;;;2.07;100.00
49723;BME280;43484;43.608;1.458;2023-01-27T13:12:25;99829.72;;;2.14;100.00
49723;BME280;43484;43.608;1.458;2023-01-27T13:15:13;99828.88;;;2.14;100.00
49723;BME280;43484;43.608;1.458;2023-01-27T13:17:43;99824.38;;;2.23;100.00
49723;BME280;43484;43.608;1.458;2023-01-27T13:20:30;99829.63;;;2.26;100.00
49723;BME280;43484;43.608;1.458;2023-01-27T13:23:09;99818.47;;;2.09;100.00
49723;BME280;43484;43.608;1.458;2023-01-27T13:25:44;99811.34;;;2.30;100.00
49723;BME280;43484;43.608;1.458;2023-01-27T13:28:19;99804.94;;;2.22;100.00
49723;BME280;43484;43.608;1.458;2023-01-27T13:30:50;99810.66;;;2.32;100.00
49723;BME280;43484;43.608;1.458;2023-01-27T13:33:29;99805.34;;;2.15;100.00
49723;BME280;43484;43.608;1.458;2023-01-27T13:44:44;99780.47;;;2.21;100.00
49723;BME280;43484;43.608;1.458;2023-01-27T13:47:19;99791.44;;;2.21;100.00
49723;BME280;43484;43.608;1.458;2023-01-27T13:49:47;99785.72;;;2.24;100.00
49723;BME280;43484;43.608;1.458;2023-01-27T13:52:15;99788.53;;;2.15;100.00
49723;BME280;43484;43.608;1.458;2023-01-27T13:54:42;99771.69;;;2.29;100.00
49723;BME280;43484;43.608;1.458;2023-01-27T14:02:37;99772.28;;;2.25;100.00
49723;BME280;43484;43.608;1.458;2023-01-27T14:14:11;99744.66;;;2.28;100.00
49723;BME280;43484;43.608;1.458;2023-01-27T14:17:09;99735.91;;;2.36;100.00
49723;BME280;43484;43.608;1.458;2023-01-27T14:20:03;99730.22;;;2.40;100.00
49723;BME280;43484;43.608;1.458;2023-01-27T14:22:53;99728.09;;;2.46;100.00
49723;BME280;43484;43.608;1.458;2023-01-27T14:30:43;99726.81;;;2.39;100.00
49723;BME280;43484;43.608;1.458;2023-01-27T14:41:26;99721.34;;;2.46;100.00
49723;BME280;43484;43.608;1.458;2023-01-27T14:49:37;99729.75;;;2.60;100.00
49723;BME280;43484;43.608;1.458;2023-01-27T14:57:31;99745.72;;;2.59;100.00
49723;BME280;43484;43.608;1.458;2023-01-27T15:02:49;99741.78;;;2.64;100.00
49723;BME280;43484;43.608;1.458;2023-01-27T15:13:49;99748.25;;;2.74;100.00
49723;BME280;43484;43.608;1.458;2023-01-27T15:16:42;99753.47;;;2.62;100.00
49723;BME280;43484;43.608;1.458;2023-01-27T15:27:46;99773.13;;;2.66;100.00
49723;BME280;43484;43.608;1.458;2023-01-27T15:36:38;99800.44;;;2.58;100.00
49723;BME280;43484;43.608;1.458;2023-01-27T15:46:52;99794.19;;;2.67;100.00
49723;BME280;43484;43.608;1.458;2023-01-27T15:49:25;99790.19;;;2.70;100.00
49723;BME280;43484;43.608;1.458;2023-01-27T15:51:54;99793.50;;;2.69;100.00
49723;BME280;43484;43.608;1.458;2023-01-27T15:54:28;99795.88;;;2.81;100.00
49723;BME280;43484;43.608;1.458;2023-01-27T15:56:59;99795.63;;;2.76;100.00
49723;BME280;43484;43.608;1.458;2023-01-27T15:59:30;99792.22;;;2.90;100.00